createdAt,value
2023-05-22T04:17:33.153Z,54
2023-05-22T04:22:35.039Z,54
2023-05-22T04:27:37.184Z,54
2023-05-22T04:32:39.389Z,54
2023-05-22T04:37:41.490Z,54
2023-05-22T04:42:44.749Z,54
2023-05-22T04:47:46.884Z,55
2023-05-22T04:52:48.999Z,55
2023-05-22T04:57:51.186Z,55
2023-05-22T05:02:54.191Z,56
2023-05-22T05:07:56.490Z,56
2023-05-22T05:12:59.362Z,56
2023-05-22T05:18:02.548Z,56
2023-05-22T05:23:06.185Z,56
2023-05-22T05:28:12.998Z,56
2023-05-22T05:33:15.206Z,56
2023-05-22T05:38:17.599Z,56
2023-05-22T05:43:19.744Z,56
2023-05-22T05:48:21.917Z,56
2023-05-22T05:53:25.592Z,56
2023-05-22T05:58:27.897Z,56
2023-05-22T06:03:31.002Z,56
2023-05-22T06:08:36.398Z,56
2023-05-22T06:13:39.364Z,56
2023-05-22T06:18:41.710Z,56
2023-05-22T06:23:43.811Z,57
2023-05-22T06:28:46.231Z,57
2023-05-22T06:33:49.209Z,56
2023-05-22T06:38:56.282Z,56
2023-05-22T06:44:03.490Z,56
2023-05-22T06:49:06.084Z,56
2023-05-22T06:54:09.384Z,55
2023-05-22T06:59:11.675Z,55
2023-05-22T07:04:13.845Z,55
2023-05-22T07:09:15.961Z,55
2023-05-22T07:14:19.772Z,55
2023-05-22T07:19:22.774Z,55
2023-05-22T07:24:25.051Z,56
2023-05-22T07:29:27.968Z,56
2023-05-22T07:34:30.238Z,56
2023-05-22T07:39:34.682Z,55
2023-05-22T07:44:36.957Z,55
2023-05-22T07:49:39.149Z,54
2023-05-22T07:54:44.258Z,54
2023-05-22T07:59:46.548Z,54
2023-05-22T08:04:53.598Z,53
2023-05-22T08:09:55.597Z,53
2023-05-22T08:14:57.722Z,53
2023-05-22T08:20:00.505Z,53
2023-05-22T08:25:07.142Z,53
2023-05-22T08:30:09.509Z,53
2023-05-22T08:35:13.193Z,54
2023-05-22T08:40:16.131Z,54
2023-05-22T08:45:20.577Z,55
2023-05-22T08:50:22.744Z,55
2023-05-22T08:55:27.226Z,56
2023-05-22T09:00:31.764Z,56
2023-05-22T09:05:33.909Z,56
2023-05-22T09:10:38.444Z,56
2023-05-22T09:15:46.478Z,55
2023-05-22T09:20:54.922Z,54
2023-05-22T09:25:57.010Z,52
2023-05-22T09:31:03.278Z,50
2023-05-22T09:36:03.141Z,49
2023-05-22T09:41:05.200Z,48
2023-05-22T09:46:07.807Z,48
2023-05-22T09:51:09.866Z,48
2023-05-22T09:56:13.922Z,48
2023-05-22T10:01:15.904Z,48
2023-05-22T10:06:18.065Z,48
2023-05-22T10:11:20.339Z,48
2023-05-22T10:16:22.481Z,48
2023-05-22T10:21:26.220Z,48
2023-05-22T10:26:30.648Z,48
2023-05-22T10:31:34.306Z,48
2023-05-22T10:36:36.748Z,48
2023-05-22T10:41:38.723Z,48
2023-05-22T10:46:40.992Z,48
2023-05-22T10:51:43.209Z,48
2023-05-22T10:56:51.384Z,48
2023-05-22T11:01:58.400Z,48
2023-05-22T11:07:00.797Z,48
2023-05-22T11:12:03.568Z,48
2023-05-22T11:17:05.847Z,48
2023-05-22T11:22:08.202Z,47
2023-05-22T11:27:11.077Z,47
2023-05-22T11:32:16.383Z,47
2023-05-22T11:37:19.436Z,47
2023-05-22T11:42:22.404Z,47
2023-05-22T11:47:25.269Z,47
2023-05-22T11:52:27.646Z,47
2023-05-22T11:57:30.423Z,48
2023-05-22T12:02:32.689Z,48
2023-05-22T12:07:34.831Z,48
2023-05-22T12:12:38.505Z,48
2023-05-22T12:17:42.341Z,48
2023-05-22T12:22:45.274Z,48
2023-05-22T12:27:47.533Z,48
2023-05-22T12:32:49.717Z,48
2023-05-22T12:37:56.487Z,48
2023-05-22T12:43:03.862Z,48
2023-05-22T12:48:06.009Z,48
2023-05-22T12:53:08.432Z,48
2023-05-22T12:58:10.436Z,48
2023-05-22T13:03:14.242Z,48
2023-05-22T13:08:18.834Z,48
2023-05-22T13:13:20.834Z,48
2023-05-22T13:18:24.684Z,48
2023-05-22T13:23:26.889Z,48
2023-05-22T13:28:29.110Z,48
2023-05-22T13:33:32.227Z,48
2023-05-22T13:38:34.464Z,48
2023-05-22T13:43:36.645Z,48
2023-05-22T13:48:38.743Z,48
2023-05-22T13:53:40.999Z,48
2023-05-22T13:58:44.588Z,48
2023-05-22T14:03:47.495Z,48
2023-05-22T14:08:49.770Z,48
2023-05-22T14:13:51.792Z,48
2023-05-22T14:18:54.109Z,48
2023-05-22T14:23:58.630Z,48
2023-05-22T14:29:00.636Z,48
2023-05-22T14:34:02.798Z,47
2023-05-22T14:39:05.090Z,47
2023-05-22T14:44:07.205Z,47
2023-05-22T14:49:10.871Z,47
2023-05-22T14:54:15.610Z,47
2023-05-22T14:59:19.319Z,47
2023-05-22T15:04:21.491Z,47
2023-05-22T15:09:23.913Z,47
2023-05-22T15:14:26.697Z,47
2023-05-22T15:19:29.824Z,47
2023-05-22T15:24:31.980Z,47
2023-05-22T15:29:35.518Z,47
2023-05-22T15:34:42.360Z,46
2023-05-22T15:39:44.718Z,46
2023-05-22T15:44:47.525Z,46
2023-05-22T15:49:49.874Z,45
2023-05-22T15:54:52.086Z,45
2023-05-22T15:59:56.361Z,45
2023-05-22T16:04:58.476Z,45
2023-05-22T16:10:00.864Z,45
2023-05-22T16:15:04.559Z,45
2023-05-22T16:20:05.581Z,46
2023-05-22T16:25:08.727Z,47
2023-05-22T16:30:10.740Z,47
2023-05-22T16:35:17.682Z,48
2023-05-22T16:40:21.606Z,49
2023-05-22T16:45:23.564Z,49
2023-05-22T16:50:26.638Z,49
2023-05-22T16:55:28.857Z,48
2023-05-22T17:00:31.798Z,48
2023-05-22T17:05:35.453Z,48
2023-05-22T17:10:38.760Z,48
2023-05-22T17:15:40.982Z,48
2023-05-22T17:20:42.913Z,48
2023-05-22T17:25:45.382Z,48
2023-05-22T17:30:49.036Z,47
2023-05-22T17:35:51.111Z,47
2023-05-22T17:40:54.959Z,47
2023-05-22T17:45:57.139Z,47
2023-05-22T17:50:59.956Z,47
2023-05-22T17:56:06.868Z,47
2023-05-22T18:01:11.195Z,47
2023-05-22T18:06:13.360Z,47
2023-05-22T18:11:21.667Z,47
2023-05-22T18:16:23.931Z,47
2023-05-22T18:21:26.010Z,47
2023-05-22T18:26:28.267Z,47
2023-05-22T18:31:35.025Z,47
2023-05-22T18:36:37.893Z,47
2023-05-22T18:41:40.928Z,47
2023-05-22T18:46:43.909Z,47
2023-05-22T18:51:46.848Z,47
2023-05-22T18:56:49.102Z,47
2023-05-22T19:01:52.010Z,47
2023-05-22T19:06:54.187Z,47
2023-05-22T19:11:56.417Z,46
2023-05-22T19:16:58.503Z,46
2023-05-22T19:22:02.086Z,46
2023-05-22T19:27:05.890Z,46
2023-05-22T19:32:07.929Z,46
2023-05-22T19:37:10.272Z,46
2023-05-22T19:42:13.995Z,46
2023-05-22T19:47:16.239Z,46
2023-05-22T19:52:19.840Z,46
2023-05-22T19:57:22.315Z,46
2023-05-22T20:02:24.296Z,46
2023-05-22T20:07:26.419Z,46
2023-05-22T20:12:29.580Z,46
2023-05-22T20:17:32.324Z,46
2023-05-22T20:22:39.307Z,46
2023-05-22T20:27:43.128Z,46
2023-05-22T20:32:45.224Z,46
2023-05-22T20:37:47.333Z,46
2023-05-22T20:42:55.574Z,46
2023-05-22T20:47:59.116Z,46
2023-05-22T20:53:04.452Z,46
2023-05-22T20:58:07.475Z,46
2023-05-22T21:03:09.603Z,46
2023-05-22T21:08:11.778Z,46
2023-05-22T21:13:14.726Z,47
2023-05-22T21:18:17.606Z,47
2023-05-22T21:23:19.935Z,47
2023-05-22T21:28:26.918Z,48
2023-05-22T21:33:29.006Z,48
2023-05-22T21:38:31.883Z,48
2023-05-22T21:43:35.676Z,48
2023-05-22T21:48:39.941Z,48
2023-05-22T21:53:46.086Z,48
2023-05-22T21:58:49.076Z,48
2023-05-22T22:03:52.855Z,48
2023-05-22T22:08:54.904Z,48
2023-05-22T22:14:01.831Z,48
2023-05-22T22:19:05.533Z,48
2023-05-22T22:24:09.094Z,49
2023-05-22T22:29:12.281Z,49
2023-05-22T22:34:16.614Z,49
2023-05-22T22:39:18.758Z,49
2023-05-22T22:44:21.787Z,49
2023-05-22T22:49:23.816Z,49
2023-05-22T22:54:26.177Z,49
2023-05-22T22:59:29.309Z,49
2023-05-22T23:04:31.424Z,49
2023-05-22T23:09:33.500Z,49
2023-05-22T23:14:36.510Z,49
